createdAt,value
2022-11-25T00:01:08.429Z,14.73
2022-11-25T00:03:36.456Z,14.00
2022-11-25T00:06:10.689Z,24.23
2022-11-25T00:11:08.710Z,19.17
2022-11-25T00:13:37.850Z,15.70
2022-11-25T00:16:07.307Z,16.25
2022-11-25T00:18:35.904Z,16.23
2022-11-25T00:21:08.112Z,8.40
2022-11-25T00:23:37.018Z,24.05
2022-11-25T00:26:13.978Z,17.52
2022-11-25T00:28:43.307Z,19.17
2022-11-25T00:31:14.355Z,18.60
2022-11-25T00:33:42.966Z,21.25
2022-11-25T00:36:16.761Z,20.67
2022-11-25T00:38:45.049Z,15.45
2022-11-25T00:41:32.384Z,14.57
2022-11-25T00:44:17.707Z,13.45
2022-11-25T00:46:45.628Z,20.73
2022-11-25T00:49:13.608Z,15.45
2022-11-25T00:51:41.577Z,14.73
2022-11-25T00:54:09.486Z,21.70
2022-11-25T00:56:38.748Z,24.77
2022-11-25T00:59:06.922Z,28.20
2022-11-25T01:01:35.154Z,13.88
2022-11-25T01:04:03.753Z,20.25
2022-11-25T01:06:32.011Z,15.57
2022-11-25T01:08:59.887Z,22.40
2022-11-25T01:11:27.970Z,22.08
2022-11-25T01:14:01.421Z,18.40
2022-11-25T01:16:30.593Z,24.00
2022-11-25T01:18:59.980Z,21.33
2022-11-25T01:21:30.261Z,19.10
2022-11-25T01:24:00.587Z,20.33
2022-11-25T01:26:29.195Z,24.90
2022-11-25T01:29:00.310Z,28.95
2022-11-25T01:31:31.374Z,20.45
2022-11-25T01:34:00.631Z,19.85
2022-11-25T01:36:28.729Z,21.30
2022-11-25T01:38:58.601Z,19.92
2022-11-25T01:41:28.023Z,21.48
2022-11-25T01:44:15.485Z,20.25
2022-11-25T01:46:56.002Z,20.08
2022-11-25T01:49:30.216Z,22.00
2022-11-25T01:52:03.890Z,24.27
2022-11-25T01:54:36.867Z,17.60
2022-11-25T01:57:09.791Z,18.80
2022-11-25T01:59:44.761Z,20.10
2022-11-25T02:02:13.301Z,21.92
2022-11-25T02:04:42.369Z,19.60
2022-11-25T02:07:16.006Z,11.70
2022-11-25T02:09:46.784Z,11.07
2022-11-25T02:12:17.618Z,11.07
2022-11-25T02:14:49.597Z,21.10
2022-11-25T02:17:17.693Z,8.88
2022-11-25T02:19:57.099Z,20.67
2022-11-25T02:22:33.239Z,12.00
2022-11-25T02:25:11.577Z,17.60
2022-11-25T02:27:39.471Z,10.77
2022-11-25T02:30:08.653Z,20.80
2022-11-25T02:32:36.587Z,11.88
2022-11-25T02:35:22.194Z,19.80
2022-11-25T02:37:50.091Z,26.25
2022-11-25T02:40:19.734Z,20.10
2022-11-25T02:42:49.665Z,17.08
2022-11-25T02:45:22.143Z,18.40
2022-11-25T02:47:50.042Z,23.77
2022-11-25T02:50:18.073Z,16.63
2022-11-25T02:52:46.084Z,15.10
2022-11-25T02:55:14.109Z,9.90
2022-11-25T02:57:43.390Z,11.20
2022-11-25T03:00:12.312Z,14.70
2022-11-25T03:02:40.420Z,19.13
2022-11-25T03:05:08.882Z,12.93
2022-11-25T03:07:36.951Z,17.45
2022-11-25T03:10:05.554Z,14.68
2022-11-25T03:12:33.507Z,17.63
2022-11-25T03:15:02.777Z,15.70
2022-11-25T03:17:30.662Z,25.88
2022-11-25T03:19:58.802Z,16.67
2022-11-25T03:22:27.239Z,9.52
2022-11-25T03:24:55.208Z,14.57
2022-11-25T03:27:23.208Z,12.07
2022-11-25T03:29:51.110Z,19.67
2022-11-25T03:32:20.342Z,13.45
2022-11-25T03:34:48.295Z,17.35
2022-11-25T03:37:16.235Z,15.15
2022-11-25T03:39:44.239Z,12.38
2022-11-25T03:42:12.188Z,15.25
2022-11-25T03:44:40.070Z,18.40
2022-11-25T03:47:08.416Z,26.75
2022-11-25T03:49:37.676Z,12.73
2022-11-25T03:52:05.958Z,19.70
2022-11-25T03:54:34.191Z,24.92
2022-11-25T03:57:02.329Z,16.63
2022-11-25T03:59:30.156Z,16.42
2022-11-25T04:01:58.202Z,16.58
2022-11-25T04:04:26.283Z,14.82
2022-11-25T04:06:55.593Z,12.00
2022-11-25T04:09:23.628Z,19.10
2022-11-25T04:12:09.232Z,18.20
2022-11-25T04:14:38.016Z,15.70
2022-11-25T04:17:06.169Z,14.35
2022-11-25T04:19:34.114Z,9.13
2022-11-25T04:22:03.411Z,7.60
2022-11-25T04:24:31.347Z,12.30
2022-11-25T04:26:59.219Z,20.05
2022-11-25T04:29:27.245Z,11.50
2022-11-25T04:31:55.108Z,10.70
2022-11-25T04:34:23.267Z,6.78
2022-11-25T04:36:51.153Z,13.48
2022-11-25T04:39:20.524Z,11.10
2022-11-25T04:41:48.469Z,8.73
2022-11-25T04:44:16.389Z,10.25
2022-11-25T04:46:44.778Z,16.45
2022-11-25T04:49:13.137Z,9.32
2022-11-25T04:51:40.983Z,14.40
2022-11-25T04:54:13.344Z,9.43
2022-11-25T04:56:45.418Z,6.57
2022-11-25T04:59:30.614Z,9.82
2022-11-25T05:01:58.564Z,11.35
2022-11-25T05:04:26.443Z,12.45
2022-11-25T05:06:54.343Z,5.07
2022-11-25T05:09:22.202Z,9.63
2022-11-25T05:11:51.528Z,9.13
2022-11-25T05:14:19.404Z,10.00
2022-11-25T05:16:47.392Z,8.10
2022-11-25T05:19:15.376Z,11.80
2022-11-25T05:21:43.356Z,12.68
2022-11-25T05:24:11.420Z,5.38
2022-11-25T05:26:39.300Z,9.70
2022-11-25T05:29:08.580Z,8.00
2022-11-25T05:31:36.423Z,7.88
2022-11-25T05:34:04.876Z,10.15
2022-11-25T05:36:32.828Z,9.70
2022-11-25T05:39:01.168Z,9.95
2022-11-25T05:41:29.158Z,12.18
2022-11-25T05:43:57.173Z,11.70
2022-11-25T05:46:26.435Z,8.57
2022-11-25T05:48:55.720Z,10.88
2022-11-25T05:51:24.853Z,10.25
2022-11-25T05:53:53.129Z,7.32
2022-11-25T05:56:21.048Z,7.03
2022-11-25T05:58:49.291Z,9.93
2022-11-25T06:01:18.205Z,6.50
2022-11-25T06:03:47.523Z,8.88
2022-11-25T06:06:15.458Z,3.33
2022-11-25T06:08:43.690Z,5.25
2022-11-25T06:11:14.000Z,5.50
2022-11-25T06:13:42.877Z,3.55
2022-11-25T06:16:12.746Z,9.40
2022-11-25T06:18:41.030Z,5.90
2022-11-25T06:21:11.687Z,7.65
2022-11-25T06:23:40.485Z,7.22
2022-11-25T06:26:10.854Z,6.15
2022-11-25T06:28:38.898Z,7.75
2022-11-25T06:31:08.838Z,9.18
2022-11-25T06:33:36.795Z,5.95
2022-11-25T06:36:06.139Z,5.00
2022-11-25T06:38:35.414Z,3.25
2022-11-25T06:41:04.655Z,5.38
2022-11-25T06:43:33.811Z,9.60
2022-11-25T06:46:05.995Z,8.82
2022-11-25T06:48:34.240Z,7.53
2022-11-25T06:51:04.611Z,10.15
2022-11-25T06:53:33.370Z,6.88
2022-11-25T06:56:12.615Z,13.07
2022-11-25T06:58:41.551Z,5.30
2022-11-25T07:01:13.544Z,5.68
2022-11-25T07:03:42.058Z,10.73
2022-11-25T07:06:10.619Z,7.50
2022-11-25T07:08:38.561Z,8.55
2022-11-25T07:11:11.393Z,5.20
2022-11-25T07:13:39.342Z,7.60
2022-11-25T07:16:08.721Z,4.18
2022-11-25T07:18:38.424Z,5.45
2022-11-25T07:21:08.196Z,8.38
2022-11-25T07:23:37.441Z,5.75
2022-11-25T07:26:07.564Z,8.02
2022-11-25T07:28:37.819Z,4.93
2022-11-25T07:31:23.155Z,8.82
2022-11-25T07:33:53.754Z,5.55
2022-11-25T07:36:21.998Z,9.32
2022-11-25T07:38:50.063Z,10.07
2022-11-25T07:41:19.492Z,7.00
2022-11-25T07:43:50.082Z,5.85
2022-11-25T07:46:26.499Z,7.38
2022-11-25T07:48:57.360Z,5.30
2022-11-25T07:51:26.999Z,11.32
2022-11-25T07:53:55.828Z,6.60
2022-11-25T07:56:24.367Z,8.18
2022-11-25T07:58:53.965Z,4.18
2022-11-25T08:01:22.090Z,9.38
2022-11-25T08:03:51.819Z,6.07
2022-11-25T08:06:21.909Z,12.80
2022-11-25T08:08:50.298Z,9.60
2022-11-25T08:11:20.231Z,11.70
2022-11-25T08:13:48.860Z,6.45
2022-11-25T08:16:20.661Z,10.40
2022-11-25T08:18:49.043Z,5.82
2022-11-25T08:21:18.165Z,8.20
2022-11-25T08:23:48.582Z,9.05
2022-11-25T08:26:18.839Z,12.90
2022-11-25T08:28:47.013Z,6.45
2022-11-25T08:31:18.400Z,7.05
2022-11-25T08:33:47.033Z,8.80
2022-11-25T08:36:15.589Z,12.25
2022-11-25T08:38:44.450Z,8.95
2022-11-25T08:41:13.855Z,7.25
2022-11-25T08:43:42.412Z,13.23
2022-11-25T08:46:12.119Z,8.73
2022-11-25T08:48:42.218Z,13.05
2022-11-25T08:51:12.402Z,6.38
2022-11-25T08:53:41.097Z,7.50
2022-11-25T08:56:09.696Z,8.73
2022-11-25T08:58:38.290Z,9.60
2022-11-25T09:01:07.957Z,9.80
2022-11-25T09:03:37.922Z,11.73
2022-11-25T09:06:08.298Z,13.27
2022-11-25T09:08:36.493Z,8.68
2022-11-25T09:11:04.939Z,7.00
2022-11-25T09:13:33.419Z,8.10
2022-11-25T09:16:02.254Z,6.43
2022-11-25T09:18:30.873Z,7.07
2022-11-25T09:20:59.858Z,8.40
2022-11-25T09:23:29.107Z,8.65
2022-11-25T09:25:58.652Z,10.98
2022-11-25T09:28:27.577Z,16.52
2022-11-25T09:30:56.365Z,13.55
2022-11-25T09:33:24.363Z,9.60
2022-11-25T09:35:52.244Z,6.43
2022-11-25T09:38:20.120Z,9.38
2022-11-25T09:40:55.369Z,11.50
2022-11-25T09:43:55.698Z,11.05
2022-11-25T09:46:44.770Z,10.75
2022-11-25T09:49:38.500Z,7.28
2022-11-25T09:52:15.881Z,9.13
2022-11-25T09:54:48.979Z,11.60
2022-11-25T09:57:27.045Z,15.60
2022-11-25T10:00:04.520Z,13.48
2022-11-25T10:02:39.947Z,11.23
2022-11-25T10:05:15.404Z,12.15
2022-11-25T10:07:47.809Z,13.75
2022-11-25T10:10:23.175Z,14.15
2022-11-25T10:12:54.340Z,11.55
2022-11-25T10:15:27.430Z,10.38
2022-11-25T10:17:59.294Z,10.60
2022-11-25T10:20:30.539Z,10.48
2022-11-25T10:23:02.917Z,10.93
2022-11-25T10:25:36.330Z,17.80
2022-11-25T10:28:13.873Z,17.88
2022-11-25T10:30:46.778Z,12.57
2022-11-25T10:33:18.829Z,9.32
2022-11-25T10:35:50.624Z,10.70
2022-11-25T10:38:25.286Z,9.48
2022-11-25T10:40:55.856Z,7.97
2022-11-25T10:43:30.299Z,10.32
2022-11-25T10:46:09.693Z,18.05
2022-11-25T10:48:49.759Z,14.30
2022-11-25T10:51:40.874Z,9.95
2022-11-25T10:54:28.067Z,10.27
2022-11-25T10:56:57.953Z,11.57
2022-11-25T10:59:32.924Z,11.98
2022-11-25T11:02:19.907Z,11.75
2022-11-25T11:04:57.854Z,16.35
2022-11-25T11:07:27.007Z,17.98
2022-11-25T11:09:55.525Z,13.82
2022-11-25T11:12:26.727Z,11.50
2022-11-25T11:15:16.610Z,8.88
2022-11-25T11:17:44.521Z,13.57
2022-11-25T11:20:24.752Z,19.85
2022-11-25T11:23:08.424Z,13.15
2022-11-25T11:25:38.412Z,11.10
2022-11-25T11:28:27.260Z,8.07
2022-11-25T11:30:59.670Z,13.48
2022-11-25T11:33:33.784Z,15.48
2022-11-25T11:38:39.390Z,11.25
2022-11-25T11:41:16.834Z,13.32
2022-11-25T11:44:09.552Z,11.68
2022-11-25T11:46:54.802Z,19.63
2022-11-25T11:49:48.920Z,14.15
2022-11-25T11:52:23.667Z,9.43
2022-11-25T11:54:54.960Z,11.20
2022-11-25T11:57:35.011Z,17.08
2022-11-25T12:00:06.920Z,10.50
2022-11-25T12:02:49.912Z,12.23
2022-11-25T12:05:22.080Z,16.95
2022-11-25T12:08:01.696Z,15.23
2022-11-25T12:10:34.795Z,14.75
2022-11-25T12:13:13.929Z,18.85
2022-11-25T12:15:48.133Z,10.38
2022-11-25T12:20:56.880Z,19.27
2022-11-25T12:23:30.340Z,17.13
2022-11-25T12:26:03.755Z,20.08
2022-11-25T12:28:37.853Z,11.05
2022-11-25T12:31:13.409Z,14.73
2022-11-25T12:33:50.912Z,12.85
2022-11-25T12:36:23.691Z,11.73
2022-11-25T12:38:57.294Z,19.08
2022-11-25T12:41:30.924Z,18.83
2022-11-25T12:44:05.258Z,14.95
2022-11-25T12:46:37.715Z,11.85
2022-11-25T12:49:14.058Z,13.98
2022-11-25T12:52:09.159Z,12.85
2022-11-25T12:55:05.622Z,12.07
2022-11-25T12:57:51.055Z,17.08
2022-11-25T13:03:55.680Z,13.45
2022-11-25T13:07:00.413Z,17.25
2022-11-25T13:09:46.075Z,9.60
2022-11-25T13:12:28.815Z,8.73
2022-11-25T13:15:31.581Z,14.45
2022-11-25T13:18:03.652Z,18.10
2022-11-25T13:20:50.347Z,16.80
2022-11-25T13:23:29.359Z,14.75
2022-11-25T13:26:32.346Z,16.00
2022-11-25T13:29:01.095Z,11.88
2022-11-25T13:31:33.906Z,14.75
2022-11-25T13:34:24.241Z,16.15
2022-11-25T13:36:53.755Z,10.07
2022-11-25T13:39:32.306Z,8.90
2022-11-25T13:42:05.729Z,10.23
2022-11-25T13:44:35.918Z,11.45
2022-11-25T13:47:24.097Z,8.32
2022-11-25T13:49:53.874Z,12.80
2022-11-25T13:52:33.947Z,17.40
2022-11-25T13:55:08.543Z,15.50
2022-11-25T13:57:39.265Z,13.93
2022-11-25T14:00:10.309Z,13.13
2022-11-25T14:02:45.297Z,18.92
2022-11-25T14:05:37.240Z,12.35
2022-11-25T14:08:16.990Z,15.00
2022-11-25T14:10:56.433Z,11.05
2022-11-25T14:13:51.215Z,11.35
2022-11-25T14:19:49.645Z,17.25
2022-11-25T14:22:19.288Z,13.00
2022-11-25T14:24:50.640Z,14.57
2022-11-25T14:27:25.792Z,11.40
2022-11-25T14:29:57.375Z,12.05
2022-11-25T14:32:35.373Z,13.75
2022-11-25T14:35:09.778Z,12.38
2022-11-25T14:37:42.948Z,14.15
2022-11-25T14:40:16.550Z,14.50
2022-11-25T14:42:50.088Z,16.45
2022-11-25T14:45:23.298Z,17.10
2022-11-25T14:47:51.349Z,11.00
2022-11-25T14:50:34.375Z,16.35
2022-11-25T14:53:07.298Z,14.43
2022-11-25T14:55:35.224Z,17.42
2022-11-25T14:58:04.622Z,23.77
2022-11-25T15:00:32.597Z,15.75
2022-11-25T15:03:02.461Z,16.00
2022-11-25T15:05:34.146Z,18.98
2022-11-25T15:08:04.247Z,15.18
2022-11-25T15:10:42.062Z,16.63
2022-11-25T15:13:31.116Z,14.65
2022-11-25T15:16:06.229Z,20.27
2022-11-25T15:18:34.997Z,10.65
2022-11-25T15:21:03.944Z,11.40
2022-11-25T15:23:34.851Z,20.35
2022-11-25T15:26:04.797Z,16.60
2022-11-25T15:28:39.154Z,16.35
2022-11-25T15:31:10.712Z,11.38
2022-11-25T15:33:39.612Z,10.95
2022-11-25T15:36:08.182Z,15.48
2022-11-25T15:38:41.062Z,14.50
2022-11-25T15:41:21.545Z,21.35
2022-11-25T15:43:55.055Z,18.17
2022-11-25T15:46:24.798Z,12.93
2022-11-25T15:48:56.587Z,12.90
2022-11-25T15:51:32.222Z,15.88
2022-11-25T15:54:05.775Z,21.77
2022-11-25T15:56:36.620Z,16.88
2022-11-25T15:59:05.884Z,13.25
2022-11-25T16:01:34.297Z,12.20
2022-11-25T16:04:18.743Z,15.13
2022-11-25T16:06:55.042Z,18.27
2022-11-25T16:09:25.506Z,21.48
2022-11-25T16:11:53.419Z,15.10
2022-11-25T16:14:27.901Z,15.63
2022-11-25T16:17:02.163Z,18.92
2022-11-25T16:19:37.841Z,21.45
2022-11-25T16:22:07.331Z,23.30
2022-11-25T16:24:43.499Z,16.80
2022-11-25T16:27:19.284Z,21.55
2022-11-25T16:29:54.264Z,22.00
2022-11-25T16:32:24.471Z,21.15
2022-11-25T16:34:52.404Z,18.23
2022-11-25T16:37:20.286Z,19.98
2022-11-25T16:39:48.125Z,22.85
2022-11-25T16:42:20.459Z,16.38
2022-11-25T16:44:51.764Z,18.92
2022-11-25T16:47:21.558Z,14.98
2022-11-25T16:49:50.075Z,16.42
2022-11-25T16:52:17.982Z,18.70
2022-11-25T16:54:47.465Z,22.38
2022-11-25T16:57:21.923Z,14.00
2022-11-25T16:59:58.737Z,25.10
2022-11-25T17:02:27.319Z,15.63
2022-11-25T17:04:55.447Z,15.93
2022-11-25T17:07:39.030Z,12.35
2022-11-25T17:10:08.901Z,29.23
2022-11-25T17:12:38.543Z,17.95
2022-11-25T17:15:14.368Z,14.07
2022-11-25T17:17:42.418Z,17.17
2022-11-25T17:20:16.884Z,18.33
2022-11-25T17:22:44.783Z,18.55
2022-11-25T17:25:13.560Z,24.50
2022-11-25T17:27:42.328Z,17.08
2022-11-25T17:30:18.711Z,25.52
2022-11-25T17:32:47.377Z,17.70
2022-11-25T17:35:19.783Z,24.30
2022-11-25T17:37:48.548Z,28.40
2022-11-25T17:40:17.118Z,20.48
2022-11-25T17:42:48.325Z,17.92
2022-11-25T17:45:19.756Z,18.98
2022-11-25T17:47:48.270Z,17.27
2022-11-25T17:50:18.564Z,17.77
2022-11-25T17:52:47.104Z,18.38
2022-11-25T17:55:17.182Z,22.23
2022-11-25T17:57:45.191Z,21.08
2022-11-25T18:00:15.907Z,22.73
2022-11-25T18:02:45.328Z,14.73
2022-11-25T18:05:16.715Z,13.63
2022-11-25T18:07:45.237Z,20.83
2022-11-25T18:10:14.451Z,23.42
2022-11-25T18:12:43.661Z,24.50
2022-11-25T18:15:16.761Z,24.92
2022-11-25T18:17:46.464Z,18.98
2022-11-25T18:20:19.827Z,21.30
2022-11-25T18:22:48.932Z,22.33
2022-11-25T18:25:18.579Z,35.30
2022-11-25T18:27:47.379Z,33.30
2022-11-25T18:30:20.354Z,22.65
2022-11-25T18:32:50.050Z,24.73
2022-11-25T18:35:20.626Z,24.75
2022-11-25T18:37:48.555Z,22.08
2022-11-25T18:40:16.904Z,21.00
2022-11-25T18:42:47.943Z,20.05
2022-11-25T18:45:18.525Z,31.98
2022-11-25T18:47:46.548Z,27.45
2022-11-25T18:50:18.651Z,24.38
2022-11-25T18:52:46.847Z,19.10
2022-11-25T18:55:16.541Z,20.00
2022-11-25T18:57:48.101Z,18.38
2022-11-25T19:00:35.470Z,22.58
2022-11-25T19:03:03.568Z,30.70
2022-11-25T19:05:34.233Z,33.33
2022-11-25T19:08:02.135Z,18.88
2022-11-25T19:10:33.465Z,21.98
2022-11-25T19:13:04.453Z,21.75
2022-11-25T19:15:33.724Z,33.60
2022-11-25T19:18:04.676Z,24.95
2022-11-25T19:20:34.263Z,34.72
2022-11-25T19:23:12.776Z,29.70
2022-11-25T19:25:40.773Z,28.30
2022-11-25T19:28:13.297Z,23.05
2022-11-25T19:30:41.292Z,26.88
2022-11-25T19:33:16.957Z,25.58
2022-11-25T19:35:46.167Z,22.58
2022-11-25T19:38:19.820Z,20.73
2022-11-25T19:40:47.905Z,27.38
2022-11-25T19:43:16.080Z,23.27
2022-11-25T19:45:45.444Z,23.85
2022-11-25T19:48:15.326Z,22.33
2022-11-25T19:50:44.800Z,24.00
2022-11-25T19:53:18.371Z,19.02
2022-11-25T19:55:46.959Z,21.15
2022-11-25T19:58:15.719Z,22.50
2022-11-25T20:00:45.428Z,26.98
2022-11-25T20:03:20.010Z,18.27
2022-11-25T20:05:48.983Z,18.55
2022-11-25T20:08:21.655Z,31.50
2022-11-25T20:10:50.002Z,18.67
2022-11-25T20:13:18.279Z,26.20
2022-11-25T20:15:47.161Z,27.00
2022-11-25T20:18:18.521Z,26.45
2022-11-25T20:20:48.614Z,36.50
2022-11-25T20:23:23.462Z,25.20
2022-11-25T20:25:51.845Z,30.17
2022-11-25T20:28:22.328Z,22.38
2022-11-25T20:30:50.774Z,23.00
2022-11-25T20:33:23.850Z,25.25
2022-11-25T20:35:54.208Z,23.83
2022-11-25T20:38:25.645Z,26.85
2022-11-25T20:40:57.891Z,22.90
2022-11-25T20:43:29.383Z,26.67
2022-11-25T20:45:58.550Z,18.20
2022-11-25T20:48:27.565Z,22.00
2022-11-25T20:50:55.800Z,24.60
2022-11-25T20:53:25.028Z,24.30
2022-11-25T20:55:52.887Z,18.42
2022-11-25T20:58:23.007Z,27.70
2022-11-25T21:00:57.077Z,17.70
2022-11-25T21:03:25.927Z,26.05
2022-11-25T21:05:55.479Z,28.30
2022-11-25T21:08:26.277Z,18.52
2022-11-25T21:10:56.641Z,27.70
2022-11-25T21:13:27.299Z,18.02
2022-11-25T21:15:56.871Z,23.50
2022-11-25T21:18:25.546Z,25.33
2022-11-25T21:20:56.596Z,22.40
2022-11-25T21:23:29.206Z,18.00
2022-11-25T21:26:04.039Z,25.63
2022-11-25T21:28:33.651Z,23.45
2022-11-25T21:31:03.080Z,20.50
2022-11-25T21:33:34.083Z,23.55
2022-11-25T21:36:03.564Z,26.67
2022-11-25T21:38:33.060Z,23.38
2022-11-25T21:41:00.981Z,34.80
2022-11-25T21:43:32.816Z,22.38
2022-11-25T21:46:02.601Z,15.55
2022-11-25T21:48:31.586Z,24.38
2022-11-25T21:50:59.873Z,28.48
2022-11-25T21:53:30.931Z,18.25
2022-11-25T21:56:03.374Z,23.50
2022-11-25T21:58:31.967Z,20.27
2022-11-25T22:01:02.493Z,21.52
2022-11-25T22:03:32.440Z,20.45
2022-11-25T22:06:00.410Z,32.25
2022-11-25T22:08:28.376Z,25.58
2022-11-25T22:10:57.024Z,26.45
2022-11-25T22:13:35.067Z,24.95
2022-11-25T22:16:03.239Z,20.60
2022-11-25T22:18:33.991Z,17.20
2022-11-25T22:21:02.864Z,23.92
2022-11-25T22:23:30.848Z,15.00
2022-11-25T22:25:59.575Z,21.48
2022-11-25T22:28:30.946Z,17.42
2022-11-25T22:31:03.693Z,23.05
2022-11-25T22:33:35.120Z,15.23
2022-11-25T22:36:03.419Z,16.45
2022-11-25T22:38:32.061Z,21.88
2022-11-25T22:41:05.412Z,19.95
2022-11-25T22:43:37.524Z,23.20
2022-11-25T22:46:05.884Z,17.80
2022-11-25T22:48:37.889Z,22.70
2022-11-25T22:51:07.009Z,22.45
2022-11-25T22:53:34.901Z,21.25
2022-11-25T22:56:02.955Z,22.15
2022-11-25T22:58:30.869Z,21.13
2022-11-25T23:01:00.441Z,19.65
2022-11-25T23:03:30.238Z,26.15
2022-11-25T23:05:59.024Z,16.75
2022-11-25T23:08:29.094Z,26.50
2022-11-25T23:10:57.523Z,26.35
2022-11-25T23:13:25.967Z,17.92
2022-11-25T23:15:55.549Z,25.77
2022-11-25T23:18:29.551Z,22.90
2022-11-25T23:20:58.945Z,19.10
2022-11-25T23:23:28.761Z,18.23
2022-11-25T23:25:57.795Z,30.17
2022-11-25T23:28:26.744Z,16.48
2022-11-25T23:30:56.753Z,23.52
2022-11-25T23:33:31.878Z,19.48
2022-11-25T23:36:04.757Z,19.30
2022-11-25T23:38:39.319Z,18.63
2022-11-25T23:41:07.495Z,21.50
2022-11-25T23:43:35.609Z,20.27
2022-11-25T23:46:03.844Z,26.05
2022-11-25T23:48:33.649Z,27.38
2022-11-25T23:51:01.997Z,26.40
2022-11-25T23:53:32.793Z,28.05
2022-11-25T23:56:00.984Z,18.75
2022-11-25T23:58:29.154Z,23.52
